Strasburg, Colorado
Current Conditions -  °F | °C
As of 4:21 AM on Saturday 25 Oct 2014 (Local Time) from KFTG Reporting Station
Clear Clear  
Wind Chill: 59°   Ceiling: Unl
Heat Index: 59°   Visibility: 10mi
Dew Point: 25°   Wind: 9mph
Humidity: 27%   Direction: 220°SW
Pressure: 30.22"   Gusts: NA
Location:  39.74°N, 104.32°W
Report Text: KFTG 251021Z AUTO 22008KT 10SM CLR 15/M04 A3022 RMK AO2
Loading
Personal Weather Stations






























Interactive Weather Map
Tropical Storm Tracking
New forecast layout! Learn more

10-Day Weather Forecast

Advertisements
Track Severe Weather on mobile